createdAt,value
2022-07-30T00:00:42.201Z,3.33
2022-07-30T00:03:44.072Z,2.97
2022-07-30T00:06:45.952Z,3.13
2022-07-30T00:09:47.695Z,3.20
2022-07-30T00:12:49.865Z,3.60
2022-07-30T00:15:51.561Z,3.00
2022-07-30T00:18:53.316Z,3.10
2022-07-30T00:21:55.616Z,3.10
2022-07-30T00:24:57.397Z,3.17
2022-07-30T00:27:59.378Z,3.40
2022-07-30T00:31:01.246Z,2.90
2022-07-30T00:34:03.045Z,3.43
2022-07-30T00:37:04.743Z,2.80
2022-07-30T00:40:08.593Z,3.30
2022-07-30T00:43:16.319Z,3.43
2022-07-30T00:46:18.332Z,3.47
2022-07-30T00:49:20.713Z,3.37
2022-07-30T00:52:23.233Z,3.17
2022-07-30T00:55:25.037Z,2.90
2022-07-30T00:58:26.870Z,2.83
2022-07-30T01:01:28.656Z,2.90
2022-07-30T01:04:31.065Z,3.37
2022-07-30T01:07:33.197Z,3.07
2022-07-30T01:10:35.194Z,3.07
2022-07-30T01:13:37.111Z,2.83
2022-07-30T01:16:41.962Z,3.13
2022-07-30T01:19:48.575Z,3.47
2022-07-30T01:22:59.237Z,3.13
2022-07-30T01:26:07.480Z,3.00
2022-07-30T01:29:10.465Z,3.00
2022-07-30T01:32:14.548Z,3.13
2022-07-30T01:35:19.346Z,2.80
2022-07-30T01:38:24.902Z,2.50
2022-07-30T01:41:27.853Z,3.10
2022-07-30T01:44:29.909Z,2.73
2022-07-30T01:47:34.243Z,3.47
2022-07-30T01:50:36.970Z,3.03
2022-07-30T01:53:41.577Z,3.13
2022-07-30T01:56:46.035Z,3.33
2022-07-30T01:59:51.907Z,2.50
2022-07-30T02:02:54.543Z,2.90
2022-07-30T02:06:04.790Z,2.70
2022-07-30T02:09:11.070Z,2.87
2022-07-30T02:12:30.538Z,3.00
2022-07-30T02:15:48.689Z,2.40
2022-07-30T02:19:06.344Z,2.27
2022-07-30T02:22:15.229Z,2.83
2022-07-30T02:25:22.317Z,2.50
2022-07-30T02:28:24.811Z,3.03
2022-07-30T02:31:28.739Z,2.60
2022-07-30T02:34:38.967Z,2.60
2022-07-30T02:37:44.444Z,2.93
2022-07-30T02:40:47.989Z,2.87
2022-07-30T02:43:52.051Z,3.40
2022-07-30T02:46:57.461Z,2.57
2022-07-30T02:50:06.953Z,2.80
2022-07-30T02:53:15.715Z,2.90
2022-07-30T02:56:19.671Z,2.83
2022-07-30T02:59:23.089Z,3.87
2022-07-30T03:02:29.392Z,3.90
2022-07-30T03:05:32.058Z,3.30
2022-07-30T03:08:35.457Z,4.27
2022-07-30T03:11:38.362Z,3.43
2022-07-30T03:14:40.533Z,3.67
2022-07-30T03:17:45.196Z,3.90
2022-07-30T03:20:50.350Z,3.60
2022-07-30T03:23:54.883Z,3.87
2022-07-30T03:26:57.864Z,3.60
2022-07-30T03:30:02.395Z,3.20
2022-07-30T03:33:05.935Z,3.57
2022-07-30T03:36:09.816Z,3.33
2022-07-30T03:39:12.248Z,3.47
2022-07-30T03:42:15.114Z,3.90
2022-07-30T03:45:18.783Z,3.80
2022-07-30T03:48:21.608Z,3.83
2022-07-30T03:51:23.545Z,3.20
2022-07-30T03:54:26.029Z,3.77
2022-07-30T03:57:51.381Z,3.37
2022-07-30T04:00:59.422Z,3.37
2022-07-30T04:04:07.459Z,4.30
2022-07-30T04:07:09.740Z,3.67
2022-07-30T04:10:11.579Z,4.27
2022-07-30T04:13:33.262Z,4.30
2022-07-30T04:16:48.668Z,3.70
2022-07-30T04:19:57.657Z,4.00
2022-07-30T04:22:59.822Z,4.47
2022-07-30T04:26:02.999Z,4.17
2022-07-30T04:29:08.219Z,3.63
2022-07-30T04:32:10.553Z,3.97
2022-07-30T04:35:50.985Z,3.73
2022-07-30T04:39:01.334Z,4.07
2022-07-30T04:42:03.212Z,3.37
2022-07-30T04:45:11.938Z,4.10
2022-07-30T04:48:26.691Z,4.63
2022-07-30T04:51:43.177Z,4.23
2022-07-30T04:54:51.446Z,4.07
2022-07-30T04:57:54.952Z,4.90
2022-07-30T05:00:58.959Z,4.40
2022-07-30T05:04:05.369Z,5.30
2022-07-30T05:07:08.040Z,4.90
2022-07-30T05:10:11.590Z,6.10
2022-07-30T05:13:14.621Z,6.07
2022-07-30T05:16:17.713Z,5.53
2022-07-30T05:19:20.473Z,6.53
2022-07-30T05:22:22.513Z,6.07
2022-07-30T05:25:24.401Z,6.23
2022-07-30T05:28:29.797Z,6.17
2022-07-30T05:31:35.134Z,7.00
2022-07-30T05:34:38.069Z,7.30
2022-07-30T05:37:41.229Z,7.50
2022-07-30T05:40:44.364Z,8.60
2022-07-30T05:44:04.896Z,8.30
2022-07-30T05:47:06.653Z,9.27
2022-07-30T05:50:09.143Z,9.50
2022-07-30T05:53:10.931Z,9.47
2022-07-30T05:56:40.800Z,9.43
2022-07-30T05:59:50.385Z,9.83
2022-07-30T06:03:10.741Z,10.33
2022-07-30T06:06:31.035Z,10.97
2022-07-30T06:09:37.104Z,9.43
2022-07-30T06:12:42.300Z,11.63
2022-07-30T06:15:44.528Z,11.47
2022-07-30T06:18:46.317Z,11.60
2022-07-30T06:22:05.536Z,11.13
2022-07-30T06:25:11.297Z,10.97
2022-07-30T06:28:35.921Z,10.83
2022-07-30T06:31:35.457Z,11.80
2022-07-30T06:34:37.207Z,11.00
2022-07-30T06:38:05.702Z,11.87
2022-07-30T06:41:04.556Z,11.90
2022-07-30T06:44:24.305Z,12.50
2022-07-30T06:47:48.601Z,12.30
2022-07-30T06:50:51.254Z,12.30
2022-07-30T06:53:53.209Z,11.50
2022-07-30T06:57:23.676Z,11.97
2022-07-30T07:00:26.346Z,13.03
2022-07-30T07:03:39.702Z,13.17
2022-07-30T07:06:42.413Z,12.63
2022-07-30T07:09:46.010Z,12.53
2022-07-30T07:13:10.743Z,10.97
2022-07-30T07:16:12.581Z,11.97
2022-07-30T07:20:01.182Z,11.23
2022-07-30T07:22:40.298Z,10.50
2022-07-30T07:25:43.671Z,10.60
2022-07-30T07:28:45.388Z,10.90
2022-07-30T07:32:06.919Z,12.20
2022-07-30T07:35:09.829Z,11.53
2022-07-30T07:38:14.965Z,11.00
2022-07-30T07:41:17.585Z,10.83
2022-07-30T07:44:19.598Z,10.27
2022-07-30T07:47:21.325Z,11.60
2022-07-30T07:50:38.514Z,11.03
2022-07-30T07:53:42.124Z,11.17
2022-07-30T07:56:44.569Z,11.07
2022-07-30T07:59:48.084Z,10.53
2022-07-30T08:03:00.300Z,11.67
2022-07-30T08:06:06.228Z,10.23
2022-07-30T08:09:44.717Z,11.77
2022-07-30T08:13:49.105Z,11.23
2022-07-30T08:16:37.678Z,10.10
2022-07-30T08:20:04.087Z,10.20
2022-07-30T08:23:06.642Z,10.17
2022-07-30T08:26:08.567Z,10.33
2022-07-30T08:29:14.149Z,8.93
2022-07-30T08:32:18.888Z,8.90
2022-07-30T08:35:24.669Z,9.60
2022-07-30T08:38:26.445Z,8.57
2022-07-30T08:41:28.601Z,8.77
2022-07-30T08:44:32.342Z,9.37
2022-07-30T08:47:41.210Z,8.77
2022-07-30T08:50:46.152Z,8.87
2022-07-30T08:54:08.259Z,8.80
2022-07-30T08:57:11.123Z,8.40
2022-07-30T09:00:14.697Z,8.37
2022-07-30T09:03:16.722Z,7.23
2022-07-30T09:06:19.422Z,8.07
2022-07-30T09:09:21.253Z,7.63
2022-07-30T09:12:39.619Z,7.40
2022-07-30T09:15:41.544Z,6.38
2022-07-30T09:18:44.340Z,7.07
2022-07-30T09:22:17.216Z,6.00
2022-07-30T09:25:44.292Z,6.60
2022-07-30T09:29:17.619Z,6.13
2022-07-30T09:32:54.317Z,5.68
2022-07-30T09:36:18.649Z,5.18
2022-07-30T09:39:40.895Z,4.82
2022-07-30T09:43:09.445Z,6.35
2022-07-30T09:46:12.976Z,4.85
2022-07-30T09:49:19.913Z,5.15
2022-07-30T09:52:29.630Z,4.40
2022-07-30T09:55:36.464Z,4.32
2022-07-30T09:58:45.699Z,4.05
2022-07-30T10:01:54.923Z,4.30
2022-07-30T10:05:24.895Z,3.80
2022-07-30T10:08:42.134Z,3.33
2022-07-30T10:11:47.882Z,3.70
2022-07-30T10:14:53.076Z,3.78
2022-07-30T10:17:56.188Z,3.90
2022-07-30T10:21:19.710Z,3.90
2022-07-30T10:24:40.856Z,4.38
2022-07-30T10:28:04.320Z,3.78
2022-07-30T10:31:08.277Z,3.47
2022-07-30T10:34:33.901Z,3.15
2022-07-30T10:37:39.055Z,2.80
2022-07-30T10:40:57.164Z,2.80
2022-07-30T10:44:17.420Z,2.67
2022-07-30T10:47:20.078Z,2.40
2022-07-30T10:50:26.758Z,2.45
2022-07-30T10:53:37.303Z,3.03
2022-07-30T10:56:39.565Z,2.13
2022-07-30T10:59:52.761Z,2.30
2022-07-30T11:03:15.989Z,2.55
2022-07-30T11:06:24.279Z,2.00
2022-07-30T11:09:49.727Z,2.20
2022-07-30T11:13:07.368Z,1.92
2022-07-30T11:16:09.237Z,1.65
2022-07-30T11:19:53.422Z,1.77
2022-07-30T11:22:40.579Z,1.63
2022-07-30T11:25:51.537Z,1.90
2022-07-30T11:28:56.500Z,1.60
2022-07-30T11:32:29.654Z,1.45
2022-07-30T11:35:35.055Z,1.63
2022-07-30T11:39:03.343Z,1.73
2022-07-30T11:42:24.943Z,1.33
2022-07-30T11:45:29.313Z,2.00
2022-07-30T11:48:31.828Z,1.65
2022-07-30T11:51:45.058Z,1.63
2022-07-30T11:54:54.124Z,1.40
2022-07-30T11:57:57.391Z,1.60
2022-07-30T12:01:01.983Z,1.38
2022-07-30T12:04:08.892Z,1.27
2022-07-30T12:07:10.696Z,1.50
2022-07-30T12:10:27.015Z,1.10
2022-07-30T12:13:45.359Z,1.33
2022-07-30T12:16:52.395Z,1.25
2022-07-30T12:19:54.128Z,0.80
2022-07-30T12:22:56.921Z,1.30
2022-07-30T12:25:58.856Z,1.52
2022-07-30T12:29:03.189Z,1.42
2022-07-30T12:32:05.354Z,1.33
2022-07-30T12:35:07.469Z,1.67
2022-07-30T12:38:10.133Z,0.90
2022-07-30T12:41:12.025Z,1.10
2022-07-30T12:44:36.839Z,1.02
2022-07-30T12:47:38.701Z,1.08
2022-07-30T12:50:40.597Z,1.05
2022-07-30T12:53:42.405Z,0.73
2022-07-30T12:57:05.689Z,0.85
2022-07-30T13:00:08.667Z,0.90
2022-07-30T13:03:27.847Z,0.98
2022-07-30T13:06:29.913Z,1.10
2022-07-30T13:09:31.665Z,0.70
2022-07-30T13:12:33.408Z,0.95
2022-07-30T13:15:35.170Z,1.02
2022-07-30T13:18:38.557Z,0.80
2022-07-30T13:21:49.601Z,1.00
2022-07-30T13:24:51.865Z,1.13
2022-07-30T13:27:53.615Z,0.63
2022-07-30T13:30:56.881Z,0.70
2022-07-30T13:33:59.007Z,1.00
2022-07-30T13:37:01.137Z,0.90
2022-07-30T13:40:03.350Z,0.70
2022-07-30T13:43:05.123Z,0.60
2022-07-30T13:46:06.859Z,0.80
2022-07-30T13:49:08.744Z,0.80
2022-07-30T13:52:11.697Z,1.00
2022-07-30T13:55:13.851Z,1.20
2022-07-30T13:58:15.558Z,0.73
2022-07-30T14:01:18.371Z,0.70
2022-07-30T14:04:20.273Z,0.90
2022-07-30T14:07:22.123Z,0.70
2022-07-30T14:10:24.202Z,0.90
2022-07-30T14:13:26.023Z,0.80
2022-07-30T14:16:45.452Z,0.90
2022-07-30T14:19:47.655Z,0.80
2022-07-30T14:22:49.526Z,0.75
2022-07-30T14:25:51.313Z,0.60
2022-07-30T14:28:53.056Z,0.70
2022-07-30T14:31:55.522Z,0.90
2022-07-30T14:34:57.408Z,0.95
2022-07-30T14:37:59.201Z,0.85
2022-07-30T14:41:00.948Z,0.88
2022-07-30T14:44:03.021Z,0.95
2022-07-30T14:47:05.321Z,0.80
2022-07-30T14:50:09.604Z,0.80
2022-07-30T14:53:11.394Z,1.05
2022-07-30T14:56:13.617Z,0.80
2022-07-30T14:59:16.720Z,1.10
2022-07-30T15:02:18.489Z,1.00
2022-07-30T15:05:20.288Z,0.70
2022-07-30T15:08:22.002Z,1.00
2022-07-30T15:11:24.329Z,1.02
2022-07-30T15:14:28.273Z,1.13
2022-07-30T15:17:30.261Z,1.00
2022-07-30T15:20:32.128Z,0.90
2022-07-30T15:23:33.868Z,0.90
2022-07-30T15:26:35.653Z,0.90
2022-07-30T15:29:37.493Z,0.90
2022-07-30T15:32:39.884Z,1.10
2022-07-30T15:35:41.851Z,0.90
2022-07-30T15:38:43.652Z,0.73
2022-07-30T15:41:47.936Z,0.88
2022-07-30T15:45:15.249Z,0.80
2022-07-30T15:48:15.561Z,1.10
2022-07-30T15:51:27.707Z,1.00
2022-07-30T15:54:29.487Z,0.90
2022-07-30T15:57:31.631Z,0.82
2022-07-30T16:00:33.349Z,0.90
2022-07-30T16:03:38.842Z,0.93
2022-07-30T16:06:41.602Z,0.60
2022-07-30T16:09:43.353Z,0.70
2022-07-30T16:12:45.120Z,0.80
2022-07-30T16:15:46.845Z,0.80
2022-07-30T16:18:48.618Z,0.75
2022-07-30T16:21:50.432Z,0.70
2022-07-30T16:24:52.485Z,1.05
2022-07-30T16:27:54.327Z,0.65
2022-07-30T16:30:56.157Z,1.02
2022-07-30T16:33:58.000Z,0.68
2022-07-30T16:36:59.940Z,0.60
2022-07-30T16:40:06.276Z,0.65
2022-07-30T16:43:08.017Z,0.90
2022-07-30T16:46:10.903Z,0.50
2022-07-30T16:49:12.693Z,1.00
2022-07-30T16:52:15.823Z,0.80
2022-07-30T16:55:17.564Z,0.60
2022-07-30T16:58:19.368Z,0.60
2022-07-30T17:01:23.226Z,0.57
2022-07-30T17:04:24.983Z,0.70
2022-07-30T17:07:28.269Z,0.63
2022-07-30T17:10:29.967Z,0.80
2022-07-30T17:13:34.150Z,0.50
2022-07-30T17:16:35.982Z,0.60
2022-07-30T17:19:38.245Z,0.60
2022-07-30T17:22:43.043Z,0.70
2022-07-30T17:25:45.135Z,0.60
2022-07-30T17:28:46.883Z,0.70
2022-07-30T17:31:48.645Z,0.77
2022-07-30T17:34:50.751Z,0.60
2022-07-30T17:37:52.742Z,0.50
2022-07-30T17:40:54.912Z,0.40
2022-07-30T17:43:56.754Z,0.60
2022-07-30T17:46:58.655Z,0.95
2022-07-30T17:50:00.378Z,0.90
2022-07-30T17:53:03.631Z,0.93
2022-07-30T17:56:06.039Z,0.65
2022-07-30T17:59:13.810Z,0.80
2022-07-30T18:02:15.844Z,0.80
2022-07-30T18:05:18.563Z,1.13
2022-07-30T18:08:20.820Z,0.80
2022-07-30T18:11:23.944Z,0.77
2022-07-30T18:14:26.013Z,0.77
2022-07-30T18:17:27.978Z,0.80
2022-07-30T18:20:30.804Z,0.98
2022-07-30T18:23:34.713Z,1.05
2022-07-30T18:26:38.494Z,0.82
2022-07-30T18:29:41.110Z,0.90
2022-07-30T18:32:46.024Z,0.90
2022-07-30T18:35:48.004Z,1.05
2022-07-30T18:38:49.703Z,0.90
2022-07-30T18:41:53.051Z,0.60
2022-07-30T18:44:54.793Z,0.93
2022-07-30T18:47:56.585Z,0.82
2022-07-30T18:50:58.333Z,0.63
2022-07-30T18:54:00.083Z,0.80
2022-07-30T18:57:02.256Z,0.70
2022-07-30T19:00:09.856Z,0.80
2022-07-30T19:03:31.585Z,0.80
2022-07-30T19:06:33.389Z,0.68
2022-07-30T19:09:35.344Z,0.57
2022-07-30T19:12:37.117Z,0.80
2022-07-30T19:15:39.415Z,0.60
2022-07-30T19:18:41.136Z,0.98
2022-07-30T19:21:42.891Z,0.90
2022-07-30T19:24:44.614Z,1.27
2022-07-30T19:27:46.506Z,0.63
2022-07-30T19:30:48.269Z,0.65
2022-07-30T19:33:50.143Z,1.08
2022-07-30T19:36:51.857Z,0.80
2022-07-30T19:40:05.624Z,0.88
2022-07-30T19:43:09.376Z,1.00
2022-07-30T19:46:12.024Z,1.08
2022-07-30T19:49:14.263Z,1.05
2022-07-30T19:52:22.636Z,0.90
2022-07-30T19:55:30.777Z,1.15
2022-07-30T19:58:36.684Z,1.00
2022-07-30T20:01:40.586Z,1.00
2022-07-30T20:04:43.544Z,1.05
2022-07-30T20:07:45.684Z,1.08
2022-07-30T20:10:48.087Z,0.85
2022-07-30T20:13:49.805Z,0.82
2022-07-30T20:16:51.525Z,1.10
2022-07-30T20:19:54.132Z,1.20
2022-07-30T20:22:59.883Z,0.80
2022-07-30T20:26:04.361Z,1.33
2022-07-30T20:29:18.748Z,1.20
2022-07-30T20:32:22.861Z,1.15
2022-07-30T20:35:26.404Z,1.13
2022-07-30T20:38:29.415Z,1.10
2022-07-30T20:41:31.519Z,1.05
2022-07-30T20:44:49.396Z,1.52
2022-07-30T20:47:56.587Z,1.35
2022-07-30T20:50:58.468Z,1.05
2022-07-30T20:54:00.197Z,1.10
2022-07-30T20:57:04.399Z,1.40
2022-07-30T21:00:08.335Z,1.00
2022-07-30T21:03:13.707Z,1.50
2022-07-30T21:06:16.316Z,1.17
2022-07-30T21:09:18.200Z,1.10
2022-07-30T21:12:33.005Z,1.35
2022-07-30T21:15:36.195Z,1.35
2022-07-30T21:18:50.203Z,0.98
2022-07-30T21:21:54.221Z,0.88
2022-07-30T21:24:56.207Z,1.10
2022-07-30T21:27:58.414Z,1.60
2022-07-30T21:31:01.534Z,0.90
2022-07-30T21:34:03.907Z,0.98
2022-07-30T21:37:05.652Z,0.90
2022-07-30T21:40:09.128Z,1.05
2022-07-30T21:43:11.433Z,1.15
2022-07-30T21:46:14.117Z,1.00
2022-07-30T21:49:15.893Z,1.30
2022-07-30T21:52:17.653Z,1.08
2022-07-30T21:55:19.381Z,1.08
2022-07-30T21:58:25.804Z,1.33
2022-07-30T22:05:08.246Z,1.13
2022-07-30T22:08:12.876Z,1.23
2022-07-30T22:11:18.692Z,1.15
2022-07-30T22:14:20.418Z,1.23
2022-07-30T22:17:23.726Z,1.20
2022-07-30T22:20:38.764Z,1.33
2022-07-30T22:23:41.164Z,1.35
2022-07-30T22:27:01.165Z,0.90
2022-07-30T22:30:04.886Z,1.02
2022-07-30T22:33:18.417Z,1.10
2022-07-30T22:36:25.225Z,1.30
2022-07-30T22:42:50.065Z,0.82
2022-07-30T22:45:51.881Z,0.95
2022-07-30T22:48:56.614Z,1.25
2022-07-30T22:52:06.888Z,1.10
2022-07-30T22:55:22.004Z,1.40
2022-07-30T22:58:26.180Z,1.90
2022-07-30T23:01:28.238Z,1.25
2022-07-30T23:04:30.029Z,1.13
2022-07-30T23:07:35.952Z,1.40
2022-07-30T23:10:41.799Z,1.33
2022-07-30T23:12:29.024Z,1.13
2022-07-30T23:12:31.990Z,1.52
2022-07-30T23:13:43.571Z,0.93
2022-07-30T23:16:50.397Z,1.05
2022-07-30T23:19:52.280Z,1.13
2022-07-30T23:22:54.025Z,1.20
2022-07-30T23:25:55.721Z,1.17
2022-07-30T23:28:57.421Z,0.88
2022-07-30T23:31:59.117Z,1.00
2022-07-30T23:35:00.831Z,1.20
2022-07-30T23:38:02.608Z,1.33
2022-07-30T23:41:05.553Z,1.23
2022-07-30T23:44:07.327Z,1.67
2022-07-30T23:47:09.086Z,1.20
2022-07-30T23:50:10.780Z,1.23
2022-07-30T23:53:12.509Z,1.48
2022-07-30T23:56:15.323Z,1.17
2022-07-30T23:59:17.049Z,1.35
